createdAt,value
2022-10-27T00:00:29.100Z,10.40
2022-10-27T00:03:19.925Z,10.30
2022-10-27T00:05:50.036Z,10.40
2022-10-27T00:08:22.223Z,10.40
2022-10-27T00:10:59.107Z,10.40
2022-10-27T00:13:31.273Z,10.50
2022-10-27T00:16:01.282Z,10.40
2022-10-27T00:18:31.254Z,10.40
2022-10-27T00:21:02.689Z,10.30
2022-10-27T00:23:32.365Z,10.30
2022-10-27T00:26:02.705Z,10.30
2022-10-27T00:28:34.039Z,10.30
2022-10-27T00:31:04.846Z,10.30
2022-10-27T00:33:34.694Z,10.20
2022-10-27T00:36:08.274Z,10.20
2022-10-27T00:38:38.487Z,10.10
2022-10-27T00:41:09.733Z,10.10
2022-10-27T00:43:41.533Z,10.10
2022-10-27T00:46:21.989Z,10.10
2022-10-27T00:48:53.108Z,10.10
2022-10-27T00:51:22.576Z,10.10
2022-10-27T00:53:52.960Z,10.00
2022-10-27T00:56:22.309Z,10.00
2022-10-27T00:58:53.886Z,10.00
2022-10-27T01:01:23.832Z,9.90
2022-10-27T01:03:53.922Z,9.90
2022-10-27T01:06:23.287Z,9.90
2022-10-27T01:08:53.457Z,9.90
2022-10-27T01:11:22.717Z,9.80
2022-10-27T01:13:54.817Z,9.80
2022-10-27T01:16:35.190Z,9.80
2022-10-27T01:19:10.212Z,9.80
2022-10-27T01:21:55.397Z,9.80
2022-10-27T01:24:48.318Z,9.70
2022-10-27T01:27:44.284Z,9.70
2022-10-27T01:30:18.908Z,9.60
2022-10-27T01:32:58.813Z,9.60
2022-10-27T01:35:36.464Z,9.50
2022-10-27T01:38:14.366Z,9.40
2022-10-27T01:40:48.338Z,9.40
2022-10-27T01:43:21.927Z,9.40
2022-10-27T01:45:53.045Z,9.30
2022-10-27T01:48:23.822Z,9.30
2022-10-27T01:51:02.213Z,9.20
2022-10-27T01:53:34.796Z,9.20
2022-10-27T01:56:31.572Z,9.00
2022-10-27T01:59:27.935Z,9.10
2022-10-27T02:02:07.611Z,9.00
2022-10-27T02:04:47.056Z,9.10
2022-10-27T02:07:27.668Z,9.10
2022-10-27T02:10:02.071Z,9.10
2022-10-27T02:12:35.800Z,9.10
2022-10-27T02:15:08.765Z,9.10
2022-10-27T02:17:41.133Z,9.10
2022-10-27T02:20:17.570Z,9.00
2022-10-27T02:22:51.387Z,8.90
2022-10-27T02:25:26.743Z,8.80
2022-10-27T02:28:02.239Z,8.80
2022-10-27T02:30:33.050Z,8.70
2022-10-27T02:33:03.897Z,8.70
2022-10-27T02:35:35.348Z,8.60
2022-10-27T02:38:06.876Z,8.50
2022-10-27T02:43:11.136Z,8.40
2022-10-27T02:45:40.418Z,8.40
2022-10-27T02:48:10.010Z,8.30
2022-10-27T02:50:41.080Z,8.30
2022-10-27T02:53:10.744Z,8.20
2022-10-27T02:55:39.970Z,8.20
2022-10-27T02:58:09.979Z,8.10
2022-10-27T03:00:39.258Z,8.10
2022-10-27T03:03:09.443Z,8.10
2022-10-27T03:05:40.814Z,8.00
2022-10-27T03:08:11.948Z,8.00
2022-10-27T03:10:41.225Z,8.00
2022-10-27T03:13:11.268Z,8.00
2022-10-27T03:15:40.518Z,7.90
2022-10-27T03:18:10.544Z,8.00
2022-10-27T03:20:41.256Z,8.00
2022-10-27T03:23:10.397Z,8.00
2022-10-27T03:25:47.354Z,8.00
2022-10-27T03:28:18.129Z,8.00
2022-10-27T03:30:47.505Z,7.90
2022-10-27T03:33:17.149Z,7.80
2022-10-27T03:35:47.856Z,7.80
2022-10-27T03:38:17.856Z,7.70
2022-10-27T03:40:47.836Z,7.60
2022-10-27T03:43:17.482Z,7.60
2022-10-27T03:45:50.085Z,7.60
2022-10-27T03:48:20.086Z,7.60
2022-10-27T03:50:52.438Z,7.50
2022-10-27T03:53:22.077Z,7.50
2022-10-27T03:55:51.716Z,7.60
2022-10-27T03:58:21.395Z,7.60
2022-10-27T04:00:50.722Z,7.70
2022-10-27T04:03:20.477Z,7.60
2022-10-27T04:05:53.336Z,7.50
2022-10-27T04:08:22.876Z,7.50
2022-10-27T04:10:52.100Z,7.50
2022-10-27T04:13:22.441Z,7.50
2022-10-27T04:15:53.685Z,7.50
2022-10-27T04:18:23.232Z,7.50
2022-10-27T04:20:54.211Z,7.50
2022-10-27T04:23:23.777Z,7.50
2022-10-27T04:25:53.282Z,7.60
2022-10-27T04:28:22.784Z,7.60
2022-10-27T04:30:52.309Z,7.60
2022-10-27T04:33:25.020Z,7.50
2022-10-27T04:35:58.895Z,7.50
2022-10-27T04:38:30.329Z,7.40
2022-10-27T04:41:02.381Z,7.40
2022-10-27T04:43:32.300Z,7.40
2022-10-27T04:46:01.570Z,7.50
2022-10-27T04:48:31.117Z,7.50
2022-10-27T04:51:02.017Z,7.50
2022-10-27T04:53:31.976Z,7.50
2022-10-27T04:56:01.361Z,7.40
2022-10-27T04:58:31.361Z,7.40
2022-10-27T05:01:00.602Z,7.30
2022-10-27T05:03:30.337Z,7.30
2022-10-27T05:06:02.502Z,7.20
2022-10-27T05:08:32.476Z,7.20
2022-10-27T05:11:02.099Z,7.30
2022-10-27T05:13:31.960Z,7.40
2022-10-27T05:16:05.486Z,7.50
2022-10-27T05:18:35.125Z,7.60
2022-10-27T05:21:05.893Z,7.60
2022-10-27T05:23:35.899Z,7.70
2022-10-27T05:26:05.281Z,7.70
2022-10-27T05:28:34.781Z,7.60
2022-10-27T05:31:04.068Z,7.50
2022-10-27T05:33:33.717Z,7.50
2022-10-27T05:36:04.774Z,7.50
2022-10-27T05:38:34.802Z,7.40
2022-10-27T05:41:04.010Z,7.40
2022-10-27T05:43:37.674Z,7.50
2022-10-27T05:46:08.269Z,7.50
2022-10-27T05:48:38.249Z,7.50
2022-10-27T05:51:09.252Z,7.50
2022-10-27T05:53:39.412Z,7.50
2022-10-27T05:56:09.165Z,7.50
2022-10-27T05:58:38.998Z,7.40
2022-10-27T06:01:08.317Z,7.30
2022-10-27T06:03:37.944Z,7.30
2022-10-27T06:06:09.321Z,7.30
2022-10-27T06:08:39.182Z,7.30
2022-10-27T06:11:08.518Z,7.40
2022-10-27T06:13:38.037Z,7.50
2022-10-27T06:16:10.801Z,7.50
2022-10-27T06:18:42.897Z,7.60
2022-10-27T06:21:13.867Z,7.70
2022-10-27T06:23:43.530Z,7.70
2022-10-27T06:26:13.516Z,7.90
2022-10-27T06:28:43.454Z,7.90
2022-10-27T06:31:12.685Z,8.00
2022-10-27T06:33:42.805Z,8.10
2022-10-27T06:36:13.710Z,8.30
2022-10-27T06:38:44.514Z,8.40
2022-10-27T06:41:15.402Z,8.50
2022-10-27T06:43:47.347Z,8.60
2022-10-27T06:46:16.833Z,8.70
2022-10-27T06:48:46.700Z,8.80
2022-10-27T06:51:17.608Z,8.80
2022-10-27T06:53:47.147Z,8.80
2022-10-27T06:56:16.556Z,8.80
2022-10-27T06:58:48.530Z,8.80
2022-10-27T07:01:18.890Z,8.80
2022-10-27T07:03:48.853Z,8.80
2022-10-27T07:06:19.675Z,8.80
2022-10-27T07:08:50.325Z,8.90
2022-10-27T07:11:19.663Z,9.10
2022-10-27T07:13:49.560Z,9.10
2022-10-27T07:16:18.836Z,9.20
2022-10-27T07:18:48.718Z,9.40
2022-10-27T07:21:19.551Z,9.50
2022-10-27T07:23:49.548Z,9.70
2022-10-27T07:26:19.052Z,9.80
2022-10-27T07:28:48.598Z,9.80
2022-10-27T07:31:17.996Z,10.00
2022-10-27T07:33:47.760Z,10.20
2022-10-27T07:36:17.182Z,10.30
2022-10-27T07:38:48.204Z,10.40
2022-10-27T07:41:17.476Z,10.60
2022-10-27T07:43:49.262Z,10.90
2022-10-27T07:46:18.777Z,11.00
2022-10-27T07:48:48.831Z,11.10
2022-10-27T07:51:18.405Z,11.20
2022-10-27T07:53:55.384Z,11.20
2022-10-27T07:56:27.209Z,11.40
2022-10-27T07:58:56.813Z,11.50
2022-10-27T08:01:26.358Z,11.60
2022-10-27T08:03:56.022Z,11.80
2022-10-27T08:06:25.404Z,11.80
2022-10-27T08:08:57.180Z,11.90
2022-10-27T08:11:26.532Z,12.00
2022-10-27T08:13:56.396Z,12.20
2022-10-27T08:16:25.916Z,12.30
2022-10-27T08:18:55.873Z,12.60
2022-10-27T08:21:25.097Z,12.70
2022-10-27T08:23:56.305Z,13.00
2022-10-27T08:26:25.725Z,13.20
2022-10-27T08:28:55.604Z,13.50
2022-10-27T08:31:24.972Z,13.60
2022-10-27T08:33:54.620Z,13.80
2022-10-27T08:36:23.858Z,13.90
2022-10-27T08:38:53.828Z,14.00
2022-10-27T08:41:29.628Z,14.10
2022-10-27T08:44:15.023Z,14.20
2022-10-27T08:46:48.823Z,14.30
2022-10-27T08:49:35.820Z,14.50
2022-10-27T08:52:13.168Z,14.60
2022-10-27T08:54:45.349Z,14.60
2022-10-27T08:57:25.160Z,14.60
2022-10-27T08:59:56.133Z,14.60
2022-10-27T09:02:50.564Z,14.70
2022-10-27T09:05:36.529Z,14.70
2022-10-27T09:08:14.281Z,14.60
2022-10-27T09:10:54.300Z,14.70
2022-10-27T09:13:40.401Z,14.70
2022-10-27T09:16:16.101Z,14.80
2022-10-27T09:18:50.207Z,14.90
2022-10-27T09:21:22.985Z,14.80
2022-10-27T09:23:55.212Z,14.90
2022-10-27T09:26:30.561Z,15.00
2022-10-27T09:29:05.107Z,15.00
2022-10-27T09:31:38.609Z,15.00
2022-10-27T09:34:17.454Z,14.90
2022-10-27T09:36:47.529Z,14.90
2022-10-27T09:41:52.488Z,14.90
2022-10-27T09:44:26.969Z,15.10
2022-10-27T09:46:58.134Z,15.00
2022-10-27T09:49:33.777Z,14.90
2022-10-27T09:52:11.897Z,14.90
2022-10-27T09:54:42.974Z,15.00
2022-10-27T09:57:15.873Z,14.90
2022-10-27T09:59:57.676Z,15.00
2022-10-27T10:02:30.120Z,15.00
2022-10-27T10:05:00.658Z,15.10
2022-10-27T10:07:36.537Z,15.00
2022-10-27T10:10:09.653Z,14.90
2022-10-27T10:12:39.516Z,14.90
2022-10-27T10:15:23.616Z,15.00
2022-10-27T10:17:55.926Z,14.90
2022-10-27T10:23:23.873Z,15.20
2022-10-27T10:25:55.639Z,15.30
2022-10-27T10:28:33.352Z,15.50
2022-10-27T10:31:07.198Z,15.80
2022-10-27T10:33:40.261Z,15.90
2022-10-27T10:36:26.643Z,16.30
2022-10-27T10:38:58.100Z,16.50
2022-10-27T10:41:28.293Z,17.20
2022-10-27T10:44:15.170Z,17.70
2022-10-27T10:46:55.558Z,18.40
2022-10-27T10:49:27.640Z,18.80
2022-10-27T10:51:59.061Z,19.50
2022-10-27T10:54:33.651Z,20.40
2022-10-27T10:57:03.704Z,20.60
2022-10-27T10:59:36.460Z,20.60
2022-10-27T11:02:18.642Z,20.60
2022-10-27T11:04:48.926Z,20.20
2022-10-27T11:07:25.567Z,19.70
2022-10-27T11:10:02.663Z,19.10
2022-10-27T11:12:39.943Z,19.20
2022-10-27T11:15:29.436Z,19.70
2022-10-27T11:18:12.365Z,20.20
2022-10-27T11:20:44.813Z,20.10
2022-10-27T11:23:18.234Z,20.30
2022-10-27T11:25:47.983Z,20.70
2022-10-27T11:28:23.684Z,21.10
2022-10-27T11:31:00.406Z,21.30
2022-10-27T11:33:39.064Z,21.10
2022-10-27T11:36:16.602Z,21.10
2022-10-27T11:38:56.602Z,21.70
2022-10-27T11:41:31.973Z,22.60
2022-10-27T11:44:10.118Z,22.30
2022-10-27T11:46:44.749Z,22.00
2022-10-27T11:49:22.581Z,21.60
2022-10-27T11:51:58.073Z,21.80
2022-10-27T11:54:28.870Z,21.70
2022-10-27T11:57:11.596Z,22.00
2022-10-27T12:00:01.526Z,22.20
2022-10-27T12:03:11.126Z,22.10
2022-10-27T12:05:48.255Z,22.50
2022-10-27T12:08:26.338Z,22.50
2022-10-27T12:11:07.083Z,22.70
2022-10-27T12:13:44.278Z,22.60
2022-10-27T12:16:17.956Z,22.20
2022-10-27T12:18:53.277Z,22.20
2022-10-27T12:21:28.610Z,21.70
2022-10-27T12:24:04.752Z,21.20
2022-10-27T12:26:39.654Z,21.10
2022-10-27T12:29:11.054Z,21.00
2022-10-27T12:31:45.942Z,21.70
2022-10-27T12:34:18.379Z,21.90
2022-10-27T12:36:55.501Z,22.40
2022-10-27T12:39:29.464Z,22.70
2022-10-27T12:42:11.296Z,23.10
2022-10-27T12:44:53.760Z,22.70
2022-10-27T12:47:51.684Z,22.80
2022-10-27T12:50:33.922Z,22.90
2022-10-27T12:53:15.091Z,22.90
2022-10-27T12:55:51.863Z,23.00
2022-10-27T12:58:31.377Z,22.80
2022-10-27T13:01:12.662Z,22.20
2022-10-27T13:03:59.989Z,21.80
2022-10-27T13:06:55.856Z,21.70
2022-10-27T13:09:52.973Z,21.40
2022-10-27T13:12:44.578Z,21.50
2022-10-27T13:15:41.663Z,21.30
2022-10-27T13:18:22.866Z,21.40
2022-10-27T13:20:59.333Z,20.50
2022-10-27T13:23:37.605Z,20.30
2022-10-27T13:26:21.886Z,19.50
2022-10-27T13:28:56.537Z,19.30
2022-10-27T13:31:27.394Z,18.90
2022-10-27T13:34:21.613Z,18.80
2022-10-27T13:37:11.017Z,18.70
2022-10-27T13:39:49.113Z,18.60
2022-10-27T13:44:50.919Z,18.50
2022-10-27T13:47:21.383Z,18.50
2022-10-27T13:49:59.020Z,18.60
2022-10-27T13:52:30.440Z,18.50
2022-10-27T13:55:19.704Z,18.40
2022-10-27T13:58:25.984Z,18.30
2022-10-27T14:01:27.632Z,18.00
2022-10-27T14:04:18.257Z,17.90
2022-10-27T14:06:49.693Z,17.60
2022-10-27T14:09:26.454Z,17.40
2022-10-27T14:12:00.098Z,17.20
2022-10-27T14:14:34.830Z,17.10
2022-10-27T14:17:14.828Z,17.10
2022-10-27T14:19:48.272Z,16.90
2022-10-27T14:22:31.820Z,16.90
2022-10-27T14:25:12.043Z,16.80
2022-10-27T14:27:41.569Z,16.80
2022-10-27T14:30:19.306Z,16.70
2022-10-27T14:32:49.310Z,16.70
2022-10-27T14:35:27.435Z,16.70
2022-10-27T14:37:58.769Z,16.60
2022-10-27T14:40:37.687Z,16.50
2022-10-27T14:43:11.876Z,16.50
2022-10-27T14:45:43.746Z,16.30
2022-10-27T14:48:25.574Z,16.30
2022-10-27T14:50:55.814Z,16.20
2022-10-27T14:53:26.898Z,16.20
2022-10-27T14:56:09.511Z,16.10
2022-10-27T14:58:39.419Z,16.10
2022-10-27T15:01:27.441Z,16.00
2022-10-27T15:04:00.538Z,15.90
2022-10-27T15:06:33.332Z,15.80
2022-10-27T15:09:04.112Z,15.70
2022-10-27T15:11:33.840Z,15.50
2022-10-27T15:14:03.781Z,15.50
2022-10-27T15:16:35.497Z,15.40
2022-10-27T15:19:05.852Z,15.40
2022-10-27T15:21:35.383Z,15.30
2022-10-27T15:24:08.142Z,15.10
2022-10-27T15:26:37.602Z,15.00
2022-10-27T15:29:14.265Z,14.90
2022-10-27T15:31:45.722Z,14.80
2022-10-27T15:34:32.406Z,14.70
2022-10-27T15:37:34.224Z,14.60
2022-10-27T15:40:22.088Z,14.50
2022-10-27T15:42:51.789Z,14.50
2022-10-27T15:45:39.902Z,14.30
2022-10-27T15:48:33.560Z,14.20
2022-10-27T15:51:06.450Z,14.10
2022-10-27T15:53:39.197Z,13.90
2022-10-27T15:56:26.064Z,13.80
2022-10-27T15:59:13.101Z,13.70
2022-10-27T16:01:45.737Z,13.60
2022-10-27T16:04:31.535Z,13.50
2022-10-27T16:07:33.357Z,13.30
2022-10-27T16:10:02.255Z,13.30
2022-10-27T16:12:42.965Z,13.10
2022-10-27T16:15:22.249Z,13.10
2022-10-27T16:17:55.862Z,13.10
2022-10-27T16:20:29.605Z,13.10
2022-10-27T16:22:59.534Z,13.10
2022-10-27T16:25:31.249Z,13.10
2022-10-27T16:28:03.690Z,13.00
2022-10-27T16:30:38.686Z,13.00
2022-10-27T16:33:08.822Z,13.00
2022-10-27T16:35:40.387Z,12.90
2022-10-27T16:38:11.791Z,13.00
2022-10-27T16:40:44.382Z,12.90
2022-10-27T16:43:24.832Z,12.80
2022-10-27T16:45:54.248Z,12.80
2022-10-27T16:48:24.328Z,12.90
2022-10-27T16:50:55.060Z,12.80
2022-10-27T16:53:24.759Z,12.70
2022-10-27T16:56:04.240Z,12.70
2022-10-27T16:58:36.692Z,12.70
2022-10-27T17:01:07.354Z,12.60
2022-10-27T17:03:37.992Z,12.60
2022-10-27T17:06:09.494Z,12.60
2022-10-27T17:08:40.811Z,12.60
2022-10-27T17:11:12.033Z,12.60
2022-10-27T17:13:41.808Z,12.50
2022-10-27T17:16:14.459Z,12.50
2022-10-27T17:18:44.539Z,12.40
2022-10-27T17:21:15.885Z,12.40
2022-10-27T17:23:46.498Z,12.40
2022-10-27T17:26:17.472Z,12.40
2022-10-27T17:28:49.217Z,12.40
2022-10-27T17:31:22.829Z,12.40
2022-10-27T17:33:56.489Z,12.40
2022-10-27T17:36:27.881Z,12.40
2022-10-27T17:38:57.909Z,12.30
2022-10-27T17:41:27.223Z,12.30
2022-10-27T17:43:56.939Z,12.20
2022-10-27T17:46:27.820Z,12.20
2022-10-27T17:51:35.296Z,12.00
2022-10-27T17:54:05.515Z,12.00
2022-10-27T17:56:37.308Z,12.00
2022-10-27T17:59:13.731Z,12.00
2022-10-27T18:01:44.010Z,12.00
2022-10-27T18:04:13.697Z,12.10
2022-10-27T18:06:44.994Z,12.10
2022-10-27T18:09:15.191Z,12.10
2022-10-27T18:11:45.105Z,12.20
2022-10-27T18:14:17.598Z,12.10
2022-10-27T18:16:47.313Z,12.20
2022-10-27T18:19:18.125Z,12.10
2022-10-27T18:21:49.914Z,12.20
2022-10-27T18:24:21.869Z,12.10
2022-10-27T18:26:51.236Z,12.10
2022-10-27T18:29:23.801Z,12.00
2022-10-27T18:31:55.860Z,12.00
2022-10-27T18:34:26.152Z,12.00
2022-10-27T18:36:57.154Z,11.90
2022-10-27T18:39:26.831Z,12.00
2022-10-27T18:41:56.235Z,12.00
2022-10-27T18:44:25.985Z,12.00
2022-10-27T18:46:55.272Z,12.10
2022-10-27T18:49:46.909Z,12.10
2022-10-27T18:52:15.641Z,12.20
2022-10-27T18:54:46.495Z,12.30
2022-10-27T18:57:15.766Z,12.40
2022-10-27T18:59:45.673Z,12.40
2022-10-27T19:02:15.065Z,12.40
2022-10-27T19:04:45.342Z,12.40
2022-10-27T19:07:16.351Z,12.40
2022-10-27T19:09:45.881Z,12.50
2022-10-27T19:12:15.353Z,12.50
2022-10-27T19:14:45.450Z,12.50
2022-10-27T19:17:14.741Z,12.50
2022-10-27T19:19:44.439Z,12.60
2022-10-27T19:22:18.993Z,12.60
2022-10-27T19:24:48.812Z,12.60
2022-10-27T19:27:18.125Z,12.50
2022-10-27T19:29:47.646Z,12.50
2022-10-27T19:32:16.921Z,12.50
2022-10-27T19:34:49.171Z,12.50
2022-10-27T19:37:20.977Z,12.50
2022-10-27T19:39:50.821Z,12.40
2022-10-27T19:42:20.066Z,12.40
2022-10-27T19:44:51.597Z,12.50
2022-10-27T19:47:21.038Z,12.50
2022-10-27T19:49:51.049Z,12.50
2022-10-27T19:52:22.506Z,12.50
2022-10-27T19:54:52.305Z,12.40
2022-10-27T19:57:21.570Z,12.40
2022-10-27T19:59:51.275Z,12.40
2022-10-27T20:02:20.781Z,12.50
2022-10-27T20:04:50.850Z,12.50
2022-10-27T20:07:21.676Z,12.50
2022-10-27T20:09:52.017Z,12.60
2022-10-27T20:12:22.288Z,12.60
2022-10-27T20:14:51.928Z,12.70
2022-10-27T20:17:21.234Z,12.70
2022-10-27T20:19:50.765Z,12.80
2022-10-27T20:22:21.518Z,12.80
2022-10-27T20:24:55.104Z,12.90
2022-10-27T20:27:24.863Z,12.90
2022-10-27T20:29:55.114Z,12.90
2022-10-27T20:32:24.741Z,12.90
2022-10-27T20:34:54.413Z,12.90
2022-10-27T20:37:25.370Z,13.00
2022-10-27T20:39:55.392Z,13.00
2022-10-27T20:42:24.976Z,12.90
2022-10-27T20:44:55.349Z,12.90
2022-10-27T20:47:24.719Z,13.00
2022-10-27T20:49:54.645Z,13.00
2022-10-27T20:52:25.495Z,13.00
2022-10-27T20:54:55.585Z,13.00
2022-10-27T20:57:24.910Z,13.00
2022-10-27T20:59:54.598Z,13.00
2022-10-27T21:02:24.043Z,12.90
2022-10-27T21:04:54.790Z,12.90
2022-10-27T21:07:28.759Z,13.00
2022-10-27T21:10:00.718Z,12.90
2022-10-27T21:12:31.316Z,12.80
2022-10-27T21:15:04.660Z,12.80
2022-10-27T21:17:41.641Z,12.80
2022-10-27T21:20:16.720Z,12.80
2022-10-27T21:22:50.924Z,12.80
2022-10-27T21:25:22.839Z,12.70
2022-10-27T21:27:55.729Z,12.70
2022-10-27T21:30:30.905Z,12.60
2022-10-27T21:33:07.957Z,12.60
2022-10-27T21:35:46.071Z,12.50
2022-10-27T21:38:29.158Z,12.50
2022-10-27T21:41:09.120Z,12.30
2022-10-27T21:43:47.125Z,12.30
2022-10-27T21:46:31.371Z,12.20
2022-10-27T21:49:12.957Z,12.30
2022-10-27T21:51:51.712Z,12.30
2022-10-27T21:54:25.303Z,12.20
2022-10-27T21:56:56.549Z,12.10
2022-10-27T21:59:26.555Z,12.00
2022-10-27T22:01:56.529Z,11.90
2022-10-27T22:04:28.577Z,11.80
2022-10-27T22:06:59.158Z,11.70
2022-10-27T22:09:29.895Z,11.60
2022-10-27T22:11:59.981Z,11.50
2022-10-27T22:14:32.043Z,11.40
2022-10-27T22:17:02.601Z,11.40
2022-10-27T22:19:32.971Z,11.30
2022-10-27T22:24:38.613Z,11.10
2022-10-27T22:27:08.665Z,11.10
2022-10-27T22:29:37.997Z,11.10
2022-10-27T22:32:08.020Z,11.00
2022-10-27T22:34:37.286Z,10.90
2022-10-27T22:37:06.849Z,10.80
2022-10-27T22:39:37.657Z,10.80
2022-10-27T22:42:07.320Z,10.70
2022-10-27T22:44:36.841Z,10.70
2022-10-27T22:47:06.797Z,10.60
2022-10-27T22:49:37.374Z,10.60
2022-10-27T22:52:07.811Z,10.50
2022-10-27T22:54:38.594Z,10.50
2022-10-27T22:57:08.911Z,10.50
2022-10-27T22:59:38.239Z,10.50
2022-10-27T23:02:07.954Z,10.50
2022-10-27T23:04:37.544Z,10.50
2022-10-27T23:07:07.530Z,10.60
2022-10-27T23:09:38.328Z,10.70
2022-10-27T23:12:09.056Z,10.60
2022-10-27T23:14:38.461Z,10.60
2022-10-27T23:17:08.550Z,10.60
2022-10-27T23:19:37.915Z,10.60
2022-10-27T23:22:07.455Z,10.50
2022-10-27T23:24:38.240Z,10.60
2022-10-27T23:27:08.142Z,10.70
2022-10-27T23:29:37.445Z,10.70
2022-10-27T23:32:07.264Z,10.70
2022-10-27T23:34:36.849Z,10.70
2022-10-27T23:37:06.353Z,10.60
2022-10-27T23:39:35.712Z,10.50
2022-10-27T23:42:07.213Z,10.50
2022-10-27T23:44:36.089Z,10.50
2022-10-27T23:47:05.814Z,10.60
2022-10-27T23:49:35.189Z,10.70
2022-10-27T23:52:05.234Z,10.70
2022-10-27T23:54:34.470Z,10.80
2022-10-27T23:57:04.193Z,10.90
2022-10-27T23:59:34.933Z,10.90
